Time;durP1;ratioP1;P1;durP2;ratioP2;P2;SDS_P1;SDS_P2;PMS_P1;PMS_P2;Temp;Humidity;BMP_temperature;BMP_pressure;BME280_temperature;BME280_humidity;BME280_pressure;Samples;Min_cycle;Max_cycle;Signal;HPM_P1;HPM_P2
2022/12/11 00:01:19;;;;;;;4.80;1.10;;;;;;;;;;4998570;28;20204;-69
2022/12/11 00:03:46;;;;;;;4.30;1.02;;;;;;;;;;5004837;28;20064;-69
2022/12/11 00:06:15;;;;;;;1.70;1.00;;;;;;;;;;5001469;28;20072;-68
2022/12/11 00:08:42;;;;;;;1.80;1.10;;;;;;;;;;5001719;28;20046;-64
2022/12/11 00:11:10;;;;;;;2.35;1.05;;;;;;;;;;5005409;28;20057;-64
2022/12/11 00:13:36;;;;;;;4.13;1.02;;;;;;;;;;4996165;28;20058;-67
2022/12/11 00:16:02;;;;;;;3.53;1.00;;;;;;;;;;5001205;28;20050;-71
2022/12/11 00:18:28;;;;;;;4.93;1.10;;;;;;;;;;5005576;28;20076;-70
2022/12/11 00:20:54;;;;;;;2.80;1.05;;;;;;;;;;5005468;28;20046;-66
2022/12/11 00:23:20;;;;;;;5.72;1.02;;;;;;;;;;4999037;28;20042;-66
2022/12/11 00:25:47;;;;;;;2.42;0.80;;;;;;;;;;5002354;28;20096;-65
2022/12/11 00:28:17;;;;;;;5.03;1.10;;;;;;;;;;5001647;28;20373;-63
2022/12/11 00:30:43;;;;;;;3.92;0.90;;;;;;;;;;5002235;28;20836;-66
2022/12/11 00:33:11;;;;;;;2.33;1.00;;;;;;;;;;4997694;28;20100;-66
2022/12/11 00:35:39;;;;;;;2.58;1.17;;;;;;;;;;4997299;28;20077;-64
2022/12/11 00:38:05;;;;;;;5.07;1.10;;;;;;;;;;4978598;28;20049;-66
2022/12/11 00:40:36;;;;;;;1.48;0.80;;;;;;;;;;4997244;28;20042;-66
2022/12/11 00:43:03;;;;;;;2.92;1.10;;;;;;;;;;5004333;28;20041;-68
2022/12/11 00:45:28;;;;;;;2.08;1.00;;;;;;;;;;4996533;28;20112;-66
2022/12/11 00:47:55;;;;;;;1.90;0.90;;;;;;;;;;5004210;28;20045;-66
2022/12/11 00:50:20;;;;;;;2.53;0.95;;;;;;;;;;5003238;28;23902;-66
2022/12/11 00:52:46;;;;;;;2.10;1.00;;;;;;;;;;4997804;28;20062;-68
2022/12/11 00:55:12;;;;;;;3.80;1.15;;;;;;;;;;4992144;28;20142;-69
2022/12/11 00:57:38;;;;;;;1.63;0.73;;;;;;;;;;5000123;28;20053;-65
2022/12/11 01:00:08;;;;;;;2.83;1.00;;;;;;;;;;5004303;28;20104;-66
2022/12/11 01:02:34;;;;;;;3.08;1.10;;;;;;;;;;5000202;28;20054;-65
2022/12/11 01:04:59;;;;;;;1.50;1.00;;;;;;;;;;5000908;28;20044;-64
2022/12/11 01:07:26;;;;;;;2.80;1.15;;;;;;;;;;5004536;28;20123;-66
2022/12/11 01:12:36;;;;;;;;;;;;;;;;;;4991983;28;20092;-66
2022/12/11 01:15:02;;;;;;;4.35;1.23;;;;;;;;;;4998893;28;20373;-66
2022/12/11 01:17:28;;;;;;;3.53;1.10;;;;;;;;;;5005510;28;20553;-70
2022/12/11 01:19:54;;;;;;;2.40;1.08;;;;;;;;;;4997940;28;20103;-66
2022/12/11 01:22:20;;;;;;;2.03;0.90;;;;;;;;;;4994515;28;20050;-65
2022/12/11 01:24:46;;;;;;;2.30;0.93;;;;;;;;;;5006976;28;20056;-65
2022/12/11 01:27:12;;;;;;;1.60;0.80;;;;;;;;;;5006141;28;20217;-64
2022/12/11 01:29:38;;;;;;;3.13;1.10;;;;;;;;;;4992485;28;20156;-65
2022/12/11 01:32:05;;;;;;;2.38;1.17;;;;;;;;;;4996864;28;20057;-64
2022/12/11 01:34:32;;;;;;;2.80;1.13;;;;;;;;;;4991711;28;20046;-64
2022/12/11 01:36:58;;;;;;;6.40;1.10;;;;;;;;;;5000971;28;20061;-65
2022/12/11 01:39:24;;;;;;;2.38;1.10;;;;;;;;;;4996835;28;20046;-63
2022/12/11 01:41:55;;;;;;;5.32;1.13;;;;;;;;;;5001350;28;20057;-65
2022/12/11 01:44:20;;;;;;;1.95;0.90;;;;;;;;;;4991421;28;20122;-65
2022/12/11 01:46:46;;;;;;;3.55;1.08;;;;;;;;;;4994581;28;20066;-67
2022/12/11 01:49:16;;;;;;;2.65;0.95;;;;;;;;;;5002080;28;20053;-63
2022/12/11 01:51:54;;;;;;;2.13;0.90;;;;;;;;;;4997370;28;20546;-63
2022/12/11 01:54:23;;;;;;;3.22;1.05;;;;;;;;;;4998383;28;20052;-63
2022/12/11 01:56:51;;;;;;;1.45;1.00;;;;;;;;;;4997626;28;20056;-63
2022/12/11 01:59:21;;;;;;;1.48;0.82;;;;;;;;;;5009457;28;20054;-62
2022/12/11 02:01:56;;;;;;;2.95;1.20;;;;;;;;;;5004753;28;20521;-64
2022/12/11 02:04:22;;;;;;;1.58;0.90;;;;;;;;;;5003684;28;20049;-63
2022/12/11 02:06:55;;;;;;;4.57;1.20;;;;;;;;;;5004521;28;20103;-63
2022/12/11 02:09:34;;;;;;;5.63;1.40;;;;;;;;;;5005801;28;20054;-64
2022/12/11 02:12:26;;;;;;;3.08;0.90;;;;;;;;;;5003085;28;20045;-66
2022/12/11 02:15:29;;;;;;;1.95;0.90;;;;;;;;;;4980242;28;20046;-64
2022/12/11 02:18:24;;;;;;;1.67;1.00;;;;;;;;;;5007059;28;20555;-65
2022/12/11 02:21:20;;;;;;;3.00;1.10;;;;;;;;;;5001511;28;20107;-62
2022/12/11 02:24:11;;;;;;;1.85;1.02;;;;;;;;;;5000387;28;20050;-64
2022/12/11 02:27:03;;;;;;;3.58;0.93;;;;;;;;;;4998343;28;20060;-64
2022/12/11 02:29:35;;;;;;;4.55;0.95;;;;;;;;;;5001167;28;20050;-65
2022/12/11 02:32:19;;;;;;;2.90;1.10;;;;;;;;;;4999524;28;20049;-65
2022/12/11 02:34:53;;;;;;;2.97;1.02;;;;;;;;;;5004074;28;20046;-66
2022/12/11 02:37:23;;;;;;;2.50;1.17;;;;;;;;;;5006203;28;20057;-64
2022/12/11 02:39:52;;;;;;;1.52;1.10;;;;;;;;;;4985541;28;20061;-65
2022/12/11 02:42:20;;;;;;;3.22;1.10;;;;;;;;;;5006277;28;20064;-62
2022/12/11 02:44:49;;;;;;;2.60;0.90;;;;;;;;;;4995464;28;20058;-64
2022/12/11 02:47:17;;;;;;;2.00;1.00;;;;;;;;;;5003772;28;20309;-64
2022/12/11 02:49:46;;;;;;;4.15;0.95;;;;;;;;;;5008273;28;20113;-64
2022/12/11 02:52:15;;;;;;;1.23;0.80;;;;;;;;;;5004360;28;20070;-64
2022/12/11 02:54:43;;;;;;;2.90;1.00;;;;;;;;;;5002187;28;20042;-64
2022/12/11 02:57:25;;;;;;;2.20;1.00;;;;;;;;;;5008843;28;20049;-63
2022/12/11 02:59:51;;;;;;;2.88;1.00;;;;;;;;;;5006640;28;20045;-66
2022/12/11 03:02:17;;;;;;;3.20;1.23;;;;;;;;;;5007589;28;20053;-65
2022/12/11 03:04:46;;;;;;;2.45;1.08;;;;;;;;;;5010225;28;20528;-66
2022/12/11 03:07:22;;;;;;;2.70;1.05;;;;;;;;;;5005884;28;20050;-66
2022/12/11 03:09:49;;;;;;;2.80;1.10;;;;;;;;;;4999080;28;20582;-64
2022/12/11 03:12:26;;;;;;;3.05;1.15;;;;;;;;;;5003752;28;20128;-63
2022/12/11 03:14:52;;;;;;;2.60;1.00;;;;;;;;;;5001935;28;20046;-61
2022/12/11 03:17:37;;;;;;;3.13;1.00;;;;;;;;;;5005424;28;20053;-66
2022/12/11 03:20:39;;;;;;;2.92;1.33;;;;;;;;;;5004073;28;20049;-64
2022/12/11 03:23:15;;;;;;;3.88;1.52;;;;;;;;;;5004183;28;20046;-64
2022/12/11 03:26:07;;;;;;;4.55;1.25;;;;;;;;;;4985773;28;20042;-64
2022/12/11 03:28:44;;;;;;;4.32;1.20;;;;;;;;;;4988378;28;20042;-64
2022/12/11 03:31:33;;;;;;;5.43;1.38;;;;;;;;;;4999469;28;20042;-63
2022/12/11 03:34:06;;;;;;;2.72;1.10;;;;;;;;;;4990191;28;20046;-64
2022/12/11 03:36:36;;;;;;;4.38;1.20;;;;;;;;;;5002265;28;20386;-65
2022/12/11 03:39:10;;;;;;;0.73;0.68;;;;;;;;;;4999791;28;20387;-64
2022/12/11 03:41:37;;;;;;;;;;;;;;;;;;5004068;28;20984;-65
2022/12/11 03:44:03;;;;;;;6.55;1.30;;;;;;;;;;4997711;28;19995;-67
2022/12/11 03:46:34;;;;;;;3.30;1.13;;;;;;;;;;5003131;28;20060;-64
2022/12/11 03:49:09;;;;;;;1.75;0.82;;;;;;;;;;5000600;28;20651;-63
2022/12/11 03:51:36;;;;;;;3.58;1.02;;;;;;;;;;5001890;28;20124;-65
2022/12/11 03:54:03;;;;;;;3.03;0.80;;;;;;;;;;5002976;28;20132;-65
2022/12/11 03:56:32;;;;;;;6.50;1.52;;;;;;;;;;5005656;28;20690;-64
2022/12/11 03:58:57;;;;;;;9.65;2.28;;;;;;;;;;5003795;28;20046;-66
2022/12/11 04:01:24;;;;;;;5.30;1.00;;;;;;;;;;5004534;28;20054;-63
2022/12/11 04:03:50;;;;;;;4.63;1.00;;;;;;;;;;4998612;28;20061;-64
2022/12/11 04:06:16;;;;;;;3.05;0.85;;;;;;;;;;5003597;28;20037;-68
2022/12/11 04:08:41;;;;;;;5.95;1.42;;;;;;;;;;5004959;28;20428;-65
2022/12/11 04:16:38;;;;;;;5.15;1.20;;;;;;;;;;4994926;28;20067;-64
2022/12/11 04:24:33;;;;;;;3.67;1.05;;;;;;;;;;5000730;28;20371;-65
2022/12/11 04:26:59;;;;;;;3.72;1.00;;;;;;;;;;5004901;28;20050;-64
2022/12/11 04:29:25;;;;;;;3.53;1.00;;;;;;;;;;5007097;28;20088;-66
2022/12/11 04:31:51;;;;;;;3.80;1.00;;;;;;;;;;4967859;28;20064;-62
2022/12/11 04:34:17;;;;;;;4.18;1.05;;;;;;;;;;5008207;28;20046;-66
2022/12/11 04:36:43;;;;;;;6.63;0.90;;;;;;;;;;5005364;28;20153;-65
2022/12/11 04:39:09;;;;;;;3.58;1.17;;;;;;;;;;4989298;28;20193;-63
2022/12/11 04:41:36;;;;;;;2.92;1.00;;;;;;;;;;4993086;28;20097;-65
2022/12/11 04:44:01;;;;;;;2.03;1.25;;;;;;;;;;4984558;28;20044;-65
2022/12/11 04:46:27;;;;;;;3.35;0.93;;;;;;;;;;4998077;28;20050;-65
2022/12/11 04:48:53;;;;;;;3.72;1.00;;;;;;;;;;5002307;28;20052;-64
2022/12/11 04:51:19;;;;;;;5.22;1.20;;;;;;;;;;5004894;28;20045;-65
2022/12/11 04:53:45;;;;;;;3.05;0.90;;;;;;;;;;5000812;28;20069;-63
2022/12/11 04:56:14;;;;;;;4.68;1.10;;;;;;;;;;5002804;28;20053;-63
2022/12/11 04:58:42;;;;;;;4.70;1.00;;;;;;;;;;4991311;28;20082;-65
2022/12/11 05:01:26;;;;;;;5.68;1.20;;;;;;;;;;4999049;28;20127;-66
2022/12/11 05:03:52;;;;;;;8.53;1.20;;;;;;;;;;4999484;28;20046;-63
2022/12/11 05:06:18;;;;;;;6.03;1.20;;;;;;;;;;4999439;28;20066;-64
2022/12/11 05:08:44;;;;;;;5.93;1.30;;;;;;;;;;4998777;28;20103;-63
2022/12/11 05:11:12;;;;;;;3.38;1.08;;;;;;;;;;5003860;28;20069;-64
2022/12/11 05:13:38;;;;;;;3.45;1.55;;;;;;;;;;5003588;28;20560;-65
2022/12/11 05:16:09;;;;;;;7.88;1.23;;;;;;;;;;4998068;28;20058;-66
2022/12/11 05:18:35;;;;;;;3.17;1.05;;;;;;;;;;4982504;28;20133;-69
2022/12/11 05:21:04;;;;;;;17.02;2.00;;;;;;;;;;5003351;28;20054;-63
2022/12/11 05:23:31;;;;;;;6.07;1.35;;;;;;;;;;4982632;28;20469;-63
2022/12/11 05:26:03;;;;;;;3.75;1.33;;;;;;;;;;4999010;28;20417;-74
2022/12/11 05:28:31;;;;;;;5.45;1.33;;;;;;;;;;4986562;28;20081;-62
2022/12/11 05:31:00;;;;;;;3.28;1.10;;;;;;;;;;4994409;28;20119;-65
2022/12/11 05:33:26;;;;;;;2.45;1.02;;;;;;;;;;4997451;28;20049;-66
2022/12/11 05:35:52;;;;;;;6.30;1.45;;;;;;;;;;4994842;28;20049;-63
2022/12/11 05:38:18;;;;;;;7.43;1.33;;;;;;;;;;5003552;28;20052;-64
2022/12/11 05:41:04;;;;;;;2.88;1.30;;;;;;;;;;5003297;28;20167;-63
2022/12/11 05:43:33;;;;;;;5.38;1.60;;;;;;;;;;4980374;28;20042;-63
2022/12/11 05:46:21;;;;;;;3.10;1.60;;;;;;;;;;4999613;28;20050;-67
2022/12/11 05:48:48;;;;;;;5.00;1.25;;;;;;;;;;4987507;28;20109;-64
2022/12/11 05:51:15;;;;;;;5.32;1.35;;;;;;;;;;5003355;28;20050;-63
2022/12/11 05:53:42;;;;;;;4.13;1.35;;;;;;;;;;5001500;28;20073;-63
2022/12/11 05:56:14;;;;;;;4.65;1.10;;;;;;;;;;4999712;28;20054;-65
2022/12/11 05:58:41;;;;;;;4.20;1.30;;;;;;;;;;5004700;28;20062;-61
2022/12/11 06:01:09;;;;;;;3.83;1.15;;;;;;;;;;4999853;28;20453;-62
2022/12/11 06:03:35;;;;;;;6.25;1.50;;;;;;;;;;5003171;28;20508;-62
2022/12/11 06:06:04;;;;;;;2.42;1.20;;;;;;;;;;5003216;28;20061;-65
2022/12/11 06:08:30;;;;;;;6.18;1.15;;;;;;;;;;5003008;28;20050;-62
2022/12/11 06:10:57;;;;;;;8.15;1.55;;;;;;;;;;5001829;28;20049;-64
2022/12/11 06:13:23;;;;;;;2.05;1.15;;;;;;;;;;4998391;28;20359;-63
2022/12/11 06:15:49;;;;;;;4.22;1.20;;;;;;;;;;4999478;28;20545;-67
2022/12/11 06:18:15;;;;;;;6.90;1.50;;;;;;;;;;4996539;28;20038;-69
2022/12/11 06:20:41;;;;;;;4.75;1.30;;;;;;;;;;4999067;28;20042;-63
2022/12/11 06:23:07;;;;;;;4.80;1.42;;;;;;;;;;4994840;28;20075;-62
2022/12/11 06:25:33;;;;;;;4.18;1.52;;;;;;;;;;4998246;28;20123;-63
2022/12/11 06:27:59;;;;;;;9.68;2.13;;;;;;;;;;4999102;28;20053;-62
2022/12/11 06:30:25;;;;;;;3.15;1.40;;;;;;;;;;5003977;28;20053;-65
2022/12/11 06:32:51;;;;;;;3.78;1.40;;;;;;;;;;4993756;28;20066;-65
2022/12/11 06:35:17;;;;;;;3.78;1.42;;;;;;;;;;4998686;28;20407;-64
2022/12/11 06:37:43;;;;;;;4.43;1.58;;;;;;;;;;5000651;28;20057;-61
2022/12/11 06:40:11;;;;;;;6.13;1.80;;;;;;;;;;5000731;28;20061;-63
2022/12/11 06:42:37;;;;;;;7.28;1.42;;;;;;;;;;4999003;28;20713;-62
2022/12/11 06:45:04;;;;;;;3.92;1.52;;;;;;;;;;5001060;28;20054;-64
2022/12/11 06:47:32;;;;;;;6.55;1.95;;;;;;;;;;5002391;28;20133;-65
2022/12/11 06:49:58;;;;;;;5.95;1.60;;;;;;;;;;5003759;28;20041;-63
2022/12/11 06:52:26;;;;;;;4.75;1.73;;;;;;;;;;5001869;28;20547;-65
2022/12/11 06:54:52;;;;;;;7.70;1.70;;;;;;;;;;5008104;28;20410;-67
2022/12/11 06:57:19;;;;;;;6.65;1.88;;;;;;;;;;5001623;28;20042;-66
2022/12/11 06:59:45;;;;;;;5.60;1.80;;;;;;;;;;4998024;28;20046;-64
2022/12/11 07:02:15;;;;;;;8.27;1.70;;;;;;;;;;5006152;28;20560;-65
2022/12/11 07:04:42;;;;;;;8.90;1.77;;;;;;;;;;4984442;28;20045;-66
2022/12/11 07:07:09;;;;;;;6.95;1.88;;;;;;;;;;5003027;28;20049;-63
2022/12/11 07:09:37;;;;;;;6.93;2.10;;;;;;;;;;5006176;28;20038;-63
2022/12/11 07:12:03;;;;;;;5.03;1.70;;;;;;;;;;5004545;28;20041;-67
2022/12/11 07:14:30;;;;;;;5.47;1.70;;;;;;;;;;5004532;28;20061;-63
2022/12/11 07:16:56;;;;;;;7.35;1.75;;;;;;;;;;4996621;28;20412;-63
2022/12/11 07:19:22;;;;;;;6.05;2.10;;;;;;;;;;5000537;28;20097;-63
2022/12/11 07:21:48;;;;;;;3.78;1.88;;;;;;;;;;5004068;28;20054;-62
2022/12/11 07:24:14;;;;;;;7.25;2.10;;;;;;;;;;5005489;28;20542;-61
2022/12/11 07:26:40;;;;;;;4.93;2.53;;;;;;;;;;5005705;28;20045;-63
2022/12/11 07:29:06;;;;;;;5.47;2.05;;;;;;;;;;5006060;28;20056;-62
2022/12/11 07:31:32;;;;;;;6.18;1.90;;;;;;;;;;5002875;28;20136;-65
2022/12/11 07:34:01;;;;;;;7.40;2.17;;;;;;;;;;5000036;28;20139;-66
2022/12/11 07:36:28;;;;;;;6.15;1.90;;;;;;;;;;5005444;28;20045;-63
2022/12/11 07:38:55;;;;;;;5.55;2.20;;;;;;;;;;5007799;28;20061;-62
2022/12/11 07:41:22;;;;;;;8.65;2.15;;;;;;;;;;4999588;28;20092;-65
2022/12/11 07:43:48;;;;;;;5.97;2.47;;;;;;;;;;5001522;28;20050;-64
2022/12/11 07:46:20;;;;;;;8.30;2.20;;;;;;;;;;4992025;28;20095;-66
2022/12/11 07:48:47;;;;;;;8.43;2.10;;;;;;;;;;5001865;28;20440;-63
2022/12/11 07:51:19;;;;;;;3.85;1.73;;;;;;;;;;4999871;28;20053;-63
2022/12/11 07:53:47;;;;;;;7.75;1.98;;;;;;;;;;4999834;28;20090;-63
2022/12/11 07:56:14;;;;;;;6.20;1.67;;;;;;;;;;5000516;28;20054;-64
2022/12/11 07:58:40;;;;;;;4.30;1.98;;;;;;;;;;5002148;28;20042;-65
2022/12/11 08:01:36;;;;;;;4.60;1.88;;;;;;;;;;4999678;28;20140;-64
2022/12/11 08:04:05;;;;;;;6.18;2.10;;;;;;;;;;4998369;28;20168;-63
2022/12/11 08:06:34;;;;;;;4.57;2.05;;;;;;;;;;5001959;28;20057;-63
2022/12/11 08:09:02;;;;;;;6.03;2.10;;;;;;;;;;5000906;28;20046;-62
2022/12/11 08:11:28;;;;;;;8.40;2.28;;;;;;;;;;5001701;28;20045;-65
2022/12/11 08:13:55;;;;;;;5.95;2.30;;;;;;;;;;5001015;28;20117;-66
2022/12/11 08:16:21;;;;;;;6.50;2.25;;;;;;;;;;4996699;28;20873;-65
2022/12/11 08:18:48;;;;;;;8.95;2.33;;;;;;;;;;5000776;28;20050;-65
2022/12/11 08:21:17;;;;;;;7.28;1.90;;;;;;;;;;4999370;28;20112;-66
2022/12/11 08:23:43;;;;;;;5.35;2.20;;;;;;;;;;4999497;28;20038;-63
2022/12/11 08:26:12;;;;;;;7.32;2.45;;;;;;;;;;5001283;28;20056;-64
2022/12/11 08:28:39;;;;;;;5.68;2.45;;;;;;;;;;5001084;28;20774;-63
2022/12/11 08:31:07;;;;;;;5.07;2.80;;;;;;;;;;4997366;28;20050;-64
2022/12/11 08:33:38;;;;;;;6.32;2.60;;;;;;;;;;4999469;28;20046;-66
2022/12/11 08:36:06;;;;;;;4.32;2.00;;;;;;;;;;4999407;28;20120;-63
2022/12/11 08:38:32;;;;;;;4.53;2.08;;;;;;;;;;5001512;28;20054;-68
2022/12/11 08:41:06;;;;;;;6.85;2.15;;;;;;;;;;5000141;28;20073;-63
2022/12/11 08:43:32;;;;;;;6.13;2.50;;;;;;;;;;5000382;28;20497;-64
2022/12/11 08:45:58;;;;;;;6.90;2.88;;;;;;;;;;5000234;28;20057;-64
2022/12/11 08:48:24;;;;;;;5.78;2.17;;;;;;;;;;5000942;28;20482;-63
2022/12/11 08:50:50;;;;;;;7.50;2.60;;;;;;;;;;4996720;28;20046;-68
2022/12/11 08:53:16;;;;;;;4.45;1.90;;;;;;;;;;4996529;28;20050;-63
2022/12/11 08:55:42;;;;;;;7.28;2.10;;;;;;;;;;5002388;28;20103;-63
2022/12/11 08:58:08;;;;;;;5.38;2.35;;;;;;;;;;4999520;28;20645;-62
2022/12/11 09:00:34;;;;;;;8.43;3.00;;;;;;;;;;5000231;28;20492;-63
2022/12/11 09:03:00;;;;;;;7.40;2.25;;;;;;;;;;4999609;28;20046;-66
2022/12/11 09:05:26;;;;;;;7.35;2.40;;;;;;;;;;5002649;28;20069;-64
2022/12/11 09:07:52;;;;;;;5.85;2.17;;;;;;;;;;4999749;28;20050;-65
2022/12/11 09:10:18;;;;;;;7.97;2.20;;;;;;;;;;4979101;28;20463;-64
2022/12/11 09:12:44;;;;;;;6.15;2.40;;;;;;;;;;4994038;28;20046;-65
2022/12/11 09:15:10;;;;;;;6.70;3.13;;;;;;;;;;4993077;28;20113;-68
2022/12/11 09:17:36;;;;;;;10.20;3.70;;;;;;;;;;4993916;28;20042;-65
2022/12/11 09:20:03;;;;;;;8.32;3.10;;;;;;;;;;4995269;28;20054;-67
2022/12/11 09:22:31;;;;;;;6.53;2.42;;;;;;;;;;5000801;28;20156;-63
2022/12/11 09:24:58;;;;;;;6.20;2.70;;;;;;;;;;4997251;28;20049;-63
2022/12/11 09:27:24;;;;;;;5.07;2.08;;;;;;;;;;4999763;28;20458;-65
2022/12/11 09:29:50;;;;;;;6.70;2.50;;;;;;;;;;4996031;28;20569;-65
2022/12/11 09:32:16;;;;;;;5.50;2.17;;;;;;;;;;4992589;28;20124;-64
2022/12/11 09:34:43;;;;;;;7.28;2.80;;;;;;;;;;4998499;28;20483;-66
2022/12/11 09:37:09;;;;;;;10.82;4.60;;;;;;;;;;4995564;28;20105;-67
2022/12/11 09:39:35;;;;;;;7.97;3.03;;;;;;;;;;5000508;28;20085;-66
2022/12/11 09:42:08;;;;;;;7.63;2.85;;;;;;;;;;4999493;28;20041;-68
2022/12/11 09:44:47;;;;;;;8.45;4.15;;;;;;;;;;4998277;28;20176;-66
2022/12/11 09:47:39;;;;;;;7.30;4.00;;;;;;;;;;4995429;28;20464;-64
2022/12/11 09:50:14;;;;;;;8.65;2.63;;;;;;;;;;4995177;28;20690;-67
2022/12/11 09:52:55;;;;;;;5.88;2.38;;;;;;;;;;4994301;28;20061;-64
2022/12/11 09:55:24;;;;;;;10.15;2.83;;;;;;;;;;4995413;28;20046;-69
2022/12/11 09:58:03;;;;;;;6.68;2.75;;;;;;;;;;4996624;28;20927;-67
2022/12/11 10:00:38;;;;;;;5.82;2.63;;;;;;;;;;4997860;28;20057;-66
2022/12/11 10:03:21;;;;;;;7.28;2.67;;;;;;;;;;4989866;28;20041;-66
2022/12/11 10:05:53;;;;;;;4.10;2.22;;;;;;;;;;4995469;28;20069;-65
2022/12/11 10:08:36;;;;;;;7.53;2.75;;;;;;;;;;4992068;28;20061;-67
2022/12/11 10:11:31;;;;;;;4.15;2.30;;;;;;;;;;4993048;28;21303;-66
2022/12/11 10:14:27;;;;;;;5.47;2.20;;;;;;;;;;4984449;28;20099;-72
2022/12/11 10:17:08;;;;;;;5.28;2.53;;;;;;;;;;4991165;28;20050;-67
2022/12/11 10:19:34;;;;;;;5.85;2.10;;;;;;;;;;5004452;28;20052;-64
2022/12/11 10:22:01;;;;;;;4.10;1.92;;;;;;;;;;4994323;28;20119;-65
2022/12/11 10:24:43;;;;;;;4.10;2.00;;;;;;;;;;5000783;28;20050;-65
2022/12/11 10:27:21;;;;;;;6.30;1.98;;;;;;;;;;5007399;28;20050;-68
2022/12/11 10:29:54;;;;;;;4.10;1.83;;;;;;;;;;5003016;28;20053;-67
2022/12/11 10:32:32;;;;;;;3.53;2.00;;;;;;;;;;5000980;28;20060;-71
2022/12/11 10:35:04;;;;;;;8.07;2.28;;;;;;;;;;5005484;28;20054;-66
2022/12/11 10:37:30;;;;;;;7.57;2.50;;;;;;;;;;4995968;28;20521;-66
2022/12/11 10:39:56;;;;;;;7.18;2.63;;;;;;;;;;4999058;28;20124;-65
2022/12/11 10:42:22;;;;;;;8.95;2.90;;;;;;;;;;5001026;28;20153;-67
2022/12/11 10:44:59;;;;;;;5.32;2.67;;;;;;;;;;5001294;28;20061;-69
2022/12/11 10:47:25;;;;;;;4.50;2.40;;;;;;;;;;5003673;28;20046;-67
2022/12/11 10:49:54;;;;;;;10.07;2.33;;;;;;;;;;4991339;28;20491;-69
2022/12/11 10:52:37;;;;;;;11.60;2.70;;;;;;;;;;5007782;28;20079;-64
2022/12/11 10:55:07;;;;;;;4.88;2.60;;;;;;;;;;5003059;28;20054;-66
2022/12/11 10:57:36;;;;;;;4.85;2.55;;;;;;;;;;4997028;28;20049;-67
2022/12/11 11:00:05;;;;;;;5.15;2.58;;;;;;;;;;4999574;28;20054;-66
2022/12/11 11:02:37;;;;;;;5.32;3.10;;;;;;;;;;4983341;28;20042;-67
2022/12/11 11:05:13;;;;;;;4.88;2.80;;;;;;;;;;4999858;28;20107;-67
2022/12/11 11:07:38;;;;;;;6.25;2.60;;;;;;;;;;5005384;28;20135;-68
2022/12/11 11:10:10;;;;;;;7.47;2.78;;;;;;;;;;5000938;28;20072;-67
2022/12/11 11:12:39;;;;;;;3.97;2.60;;;;;;;;;;5002402;28;20049;-67
2022/12/11 11:15:27;;;;;;;8.32;3.20;;;;;;;;;;4988852;28;20071;-72
2022/12/11 11:17:55;;;;;;;7.35;2.60;;;;;;;;;;4999983;28;20045;-65
2022/12/11 11:20:25;;;;;;;3.90;2.10;;;;;;;;;;5005503;28;20060;-62
2022/12/11 11:22:57;;;;;;;6.05;2.53;;;;;;;;;;5004606;28;20413;-66
2022/12/11 11:25:25;;;;;;;4.28;2.00;;;;;;;;;;4988314;28;20049;-66
2022/12/11 11:27:56;;;;;;;7.78;2.50;;;;;;;;;;4993483;28;20045;-65
2022/12/11 11:30:26;;;;;;;5.38;2.65;;;;;;;;;;4999358;28;20045;-69
2022/12/11 11:33:12;;;;;;;5.95;2.58;;;;;;;;;;4963076;28;20077;-67
2022/12/11 11:35:39;;;;;;;4.75;1.95;;;;;;;;;;5000677;28;20124;-69
2022/12/11 11:38:17;;;;;;;4.93;1.88;;;;;;;;;;4998179;28;20375;-67
2022/12/11 11:41:16;;;;;;;4.07;1.83;;;;;;;;;;4990505;28;20057;-66
2022/12/11 11:43:51;;;;;;;4.60;1.95;;;;;;;;;;4990805;28;20765;-68
2022/12/11 11:46:29;;;;;;;5.00;2.10;;;;;;;;;;4990540;28;20054;-66
2022/12/11 11:49:26;;;;;;;3.80;2.15;;;;;;;;;;4995076;28;20167;-62
2022/12/11 11:51:57;;;;;;;5.07;1.90;;;;;;;;;;4989901;28;20064;-64
2022/12/11 11:54:32;;;;;;;3.35;1.77;;;;;;;;;;4992812;28;20493;-67
2022/12/11 11:57:03;;;;;;;5.63;2.03;;;;;;;;;;4983858;28;20509;-62
2022/12/11 11:59:43;;;;;;;4.93;2.05;;;;;;;;;;4990179;28;20045;-64
2022/12/11 12:02:15;;;;;;;6.45;2.10;;;;;;;;;;4975694;28;20050;-67
2022/12/11 12:04:42;;;;;;;4.90;2.15;;;;;;;;;;4979266;28;20060;-66
2022/12/11 12:07:15;;;;;;;3.70;1.90;;;;;;;;;;4978454;28;20053;-65
2022/12/11 12:10:13;;;;;;;3.83;1.98;;;;;;;;;;4978614;28;20038;-65
2022/12/11 12:12:51;;;;;;;3.17;1.60;;;;;;;;;;4944326;28;20053;-63
2022/12/11 12:15:25;;;;;;;4.13;1.60;;;;;;;;;;4990799;28;20526;-66
2022/12/11 12:17:53;;;;;;;2.92;1.50;;;;;;;;;;4997572;28;20761;-66
2022/12/11 12:21:00;;;;;;;3.78;2.00;;;;;;;;;;4994703;28;20455;-69
2022/12/11 12:23:49;;;;;;;3.25;1.95;;;;;;;;;;4976202;28;20672;-66
2022/12/11 12:26:31;;;;;;;4.60;1.90;;;;;;;;;;4978265;28;20061;-68
2022/12/11 12:29:13;;;;;;;4.15;2.00;;;;;;;;;;4977664;28;21520;-67
2022/12/11 12:32:04;;;;;;;2.28;1.40;;;;;;;;;;4975692;28;20062;-67
2022/12/11 12:34:42;;;;;;;5.55;1.75;;;;;;;;;;4974891;28;20058;-65
2022/12/11 12:37:16;;;;;;;2.72;1.67;;;;;;;;;;4981913;28;20072;-65
2022/12/11 12:40:14;;;;;;;4.05;1.77;;;;;;;;;;4987071;28;20062;-66
2022/12/11 12:43:03;;;;;;;4.22;2.10;;;;;;;;;;4983251;28;20057;-68
2022/12/11 12:45:46;;;;;;;5.45;2.42;;;;;;;;;;4999455;28;20056;-66
2022/12/11 12:48:12;;;;;;;5.80;2.35;;;;;;;;;;5000641;28;20077;-67
2022/12/11 12:50:45;;;;;;;3.85;2.22;;;;;;;;;;4997406;28;20128;-65
2022/12/11 12:53:24;;;;;;;4.82;2.58;;;;;;;;;;4994602;28;20104;-67
2022/12/11 12:55:52;;;;;;;3.58;2.08;;;;;;;;;;4972316;28;20568;-66
2022/12/11 12:58:35;;;;;;;3.03;1.95;;;;;;;;;;4975353;28;20076;-67
2022/12/11 13:01:20;;;;;;;2.67;1.45;;;;;;;;;;4993711;28;21621;-68
2022/12/11 13:03:52;;;;;;;;;;;;;;;;;;4998965;28;20077;-67
2022/12/11 13:06:48;;;;;;;5.10;2.45;;;;;;;;;;4999066;28;19996;-66
2022/12/11 13:09:20;;;;;;;7.20;2.42;;;;;;;;;;4978274;28;20081;-67
2022/12/11 13:11:52;;;;;;;4.60;2.28;;;;;;;;;;4996520;28;20136;-65
2022/12/11 13:14:18;;;;;;;4.93;2.13;;;;;;;;;;4999139;28;20153;-64
2022/12/11 13:16:47;;;;;;;5.55;2.83;;;;;;;;;;4975970;28;20053;-63
2022/12/11 13:19:22;;;;;;;2.97;2.13;;;;;;;;;;4999029;28;20058;-63
2022/12/11 13:22:20;;;;;;;3.42;1.88;;;;;;;;;;4991985;28;20042;-63
2022/12/11 13:24:47;;;;;;;4.10;1.98;;;;;;;;;;4992628;28;20409;-66
2022/12/11 13:27:26;;;;;;;4.95;2.35;;;;;;;;;;4993812;28;20048;-66
2022/12/11 13:30:07;;;;;;;3.03;2.05;;;;;;;;;;4998314;28;20413;-64
2022/12/11 13:32:33;;;;;;;5.20;2.40;;;;;;;;;;4995900;28;20123;-69
2022/12/11 13:35:04;;;;;;;4.65;2.00;;;;;;;;;;4992417;28;20489;-71
2022/12/11 13:37:35;;;;;;;4.47;1.67;;;;;;;;;;4989196;28;20054;-63
2022/12/11 13:40:07;;;;;;;3.95;1.40;;;;;;;;;;4997566;28;20050;-64
2022/12/11 13:42:58;;;;;;;3.80;1.80;;;;;;;;;;5000502;28;20054;-66
2022/12/11 13:45:36;;;;;;;3.55;2.20;;;;;;;;;;4970712;28;20065;-65
2022/12/11 13:48:03;;;;;;;3.13;1.75;;;;;;;;;;4997772;28;20050;-65
2022/12/11 13:50:33;;;;;;;4.70;1.73;;;;;;;;;;4997733;28;20867;-69
2022/12/11 13:53:01;;;;;;;3.42;1.70;;;;;;;;;;4989625;28;20054;-65
2022/12/11 13:55:30;;;;;;;3.58;1.90;;;;;;;;;;4998983;28;20064;-70
2022/12/11 13:57:57;;;;;;;5.40;1.95;;;;;;;;;;4998354;28;20064;-64
2022/12/11 14:00:31;;;;;;;3.55;2.22;;;;;;;;;;4997556;28;20378;-65
2022/12/11 14:03:02;;;;;;;4.53;1.80;;;;;;;;;;4984387;28;21108;-67
2022/12/11 14:05:28;;;;;;;3.70;1.70;;;;;;;;;;4984756;28;20104;-68
2022/12/11 14:07:57;;;;;;;3.17;1.92;;;;;;;;;;4972412;28;20508;-67
2022/12/11 14:10:25;;;;;;;2.35;1.48;;;;;;;;;;4965834;28;21279;-64
2022/12/11 14:13:36;;;;;;;3.75;1.83;;;;;;;;;;4997782;28;20042;-66
2022/12/11 14:16:04;;;;;;;3.55;1.50;;;;;;;;;;4938024;28;20539;-66
2022/12/11 14:18:32;;;;;;;3.58;2.03;;;;;;;;;;4940338;28;20109;-66
2022/12/11 14:21:01;;;;;;;2.92;1.70;;;;;;;;;;4943206;28;20051;-66
2022/12/11 14:23:34;;;;;;;3.97;1.88;;;;;;;;;;4947036;28;20062;-67
2022/12/11 14:26:03;;;;;;;3.78;1.80;;;;;;;;;;4941413;28;20047;-66
2022/12/11 14:28:36;;;;;;;4.75;2.00;;;;;;;;;;4945793;28;20134;-67
2022/12/11 14:31:04;;;;;;;3.03;1.73;;;;;;;;;;4944498;28;20179;-66
2022/12/11 14:33:36;;;;;;;3.17;1.88;;;;;;;;;;4928552;29;20059;-66
2022/12/11 14:36:02;;;;;;;2.88;1.88;;;;;;;;;;4945192;28;20047;-67
2022/12/11 14:38:36;;;;;;;4.82;1.85;;;;;;;;;;4924755;28;20106;-67
2022/12/11 14:41:18;;;;;;;3.58;2.30;;;;;;;;;;4944420;28;20047;-69
2022/12/11 14:43:50;;;;;;;5.18;2.60;;;;;;;;;;4940707;28;20063;-67
2022/12/11 14:46:19;;;;;;;3.88;2.40;;;;;;;;;;4920305;28;20075;-74
2022/12/11 14:48:54;;;;;;;5.13;2.55;;;;;;;;;;4931293;29;20055;-69
2022/12/11 14:51:21;;;;;;;2.53;1.75;;;;;;;;;;4990813;28;20100;-71
2022/12/11 14:53:51;;;;;;;3.80;2.05;;;;;;;;;;4998092;28;20042;-67
2022/12/11 14:56:24;;;;;;;3.15;1.90;;;;;;;;;;4985592;28;20652;-70
2022/12/11 14:58:58;;;;;;;3.57;1.80;;;;;;;;;;4996859;28;20100;-68
2022/12/11 15:01:27;;;;;;;3.25;1.80;;;;;;;;;;4992189;28;20046;-67
2022/12/11 15:04:21;;;;;;;2.83;1.65;;;;;;;;;;4991205;28;20053;-68
2022/12/11 15:06:49;;;;;;;3.28;1.90;;;;;;;;;;4987011;28;20195;-68
2022/12/11 15:09:36;;;;;;;4.53;2.22;;;;;;;;;;4990893;28;20060;-69
2022/12/11 15:12:10;;;;;;;3.38;1.77;;;;;;;;;;4999186;28;20053;-68
2022/12/11 15:15:01;;;;;;;3.58;2.05;;;;;;;;;;4993714;28;20535;-68
2022/12/11 15:17:27;;;;;;;3.95;2.00;;;;;;;;;;4988166;28;20092;-68
2022/12/11 15:19:59;;;;;;;2.92;1.80;;;;;;;;;;4992974;28;20836;-65
2022/12/11 15:22:29;;;;;;;3.75;2.10;;;;;;;;;;4974121;28;20646;-65